createdAt,value
2023-03-11T00:02:27.478Z,97106.10
2023-03-11T00:04:58.047Z,97105.09
2023-03-11T00:07:29.914Z,97101.14
2023-03-11T00:10:01.898Z,97097.56
2023-03-11T00:12:33.751Z,97104.67
2023-03-11T00:15:06.416Z,97108.03
2023-03-11T00:17:38.288Z,97109.00
2023-03-11T00:20:17.024Z,97106.35
2023-03-11T00:22:51.074Z,97108.94
2023-03-11T00:25:24.298Z,97106.64
2023-03-11T00:27:56.884Z,97110.39
2023-03-11T00:30:29.930Z,97110.06
2023-03-11T00:33:02.153Z,97105.02
2023-03-11T00:35:35.506Z,97104.14
2023-03-11T00:38:10.022Z,97101.83
2023-03-11T00:40:42.569Z,97098.80
2023-03-11T00:43:14.990Z,97099.35
2023-03-11T00:45:47.011Z,97093.91
2023-03-11T00:48:19.237Z,97095.16
2023-03-11T00:50:50.533Z,97089.35
2023-03-11T00:53:23.419Z,97093.75
2023-03-11T00:55:55.555Z,97097.38
2023-03-11T00:58:29.160Z,97094.48
2023-03-11T01:01:02.042Z,97097.69
2023-03-11T01:03:34.955Z,97097.08
2023-03-11T01:06:08.079Z,97097.32
2023-03-11T01:08:40.501Z,97092.61
2023-03-11T01:11:12.524Z,97090.13
2023-03-11T01:13:44.561Z,97082.73
2023-03-11T01:16:16.504Z,97086.88
2023-03-11T01:18:48.606Z,97087.66
2023-03-11T01:21:19.027Z,97082.56
2023-03-11T01:23:50.983Z,97085.27
2023-03-11T01:26:22.968Z,97083.48
2023-03-11T01:28:53.396Z,97081.35
2023-03-11T01:31:28.133Z,97076.75
2023-03-11T01:34:00.421Z,97079.10
2023-03-11T01:36:30.918Z,97083.02
2023-03-11T01:39:03.125Z,97086.45
2023-03-11T01:41:35.130Z,97092.71
2023-03-11T01:44:05.944Z,97092.80
2023-03-11T01:47:16.241Z,97092.80
2023-03-11T01:49:49.977Z,97097.73
2023-03-11T01:52:22.289Z,97100.08
2023-03-11T01:54:56.292Z,97098.89
2023-03-11T01:57:28.370Z,97099.39
2023-03-11T02:00:10.345Z,97098.16
2023-03-11T02:02:49.463Z,97104.47
2023-03-11T02:05:22.882Z,97106.52
2023-03-11T02:07:56.842Z,97105.55
2023-03-11T02:10:33.596Z,97108.17
2023-03-11T02:13:06.779Z,97105.77
2023-03-11T02:15:40.018Z,97105.88
2023-03-11T02:18:14.695Z,97104.95
2023-03-11T02:20:52.176Z,97106.10
2023-03-11T02:23:31.027Z,97109.88
2023-03-11T02:26:10.922Z,97110.27
2023-03-11T02:28:44.183Z,97107.42
2023-03-11T02:31:16.884Z,97106.84
2023-03-11T02:33:52.263Z,97109.55
2023-03-11T02:36:39.293Z,97112.33
2023-03-11T02:39:12.214Z,97108.35
2023-03-11T02:41:47.300Z,97108.09
2023-03-11T02:44:19.434Z,97103.77
2023-03-11T02:46:51.681Z,97107.65
2023-03-11T02:49:25.780Z,97104.08
2023-03-11T02:51:59.323Z,97104.76
2023-03-11T02:54:33.760Z,97104.86
2023-03-11T02:57:06.017Z,97109.66
2023-03-11T02:59:36.309Z,97105.91
2023-03-11T03:02:08.719Z,97106.96
2023-03-11T03:04:41.326Z,97107.48
2023-03-11T03:07:14.293Z,97109.34
2023-03-11T03:09:46.345Z,97105.04
2023-03-11T03:12:18.265Z,97106.13
2023-03-11T03:14:50.545Z,97109.48
2023-03-11T03:17:23.224Z,97111.33
2023-03-11T03:19:55.886Z,97111.92
2023-03-11T03:22:29.516Z,97109.42
2023-03-11T03:25:02.044Z,97108.39
2023-03-11T03:27:36.410Z,97107.65
2023-03-11T03:30:12.136Z,97116.15
2023-03-11T03:32:44.928Z,97119.34
2023-03-11T03:35:19.207Z,97120.42
2023-03-11T03:38:09.360Z,97125.18
2023-03-11T03:40:48.744Z,97125.18
2023-03-11T03:43:22.896Z,97125.77
2023-03-11T03:46:03.052Z,97125.48
2023-03-11T03:48:38.115Z,97122.44
2023-03-11T03:51:12.476Z,97131.23
2023-03-11T03:53:48.080Z,97132.77
2023-03-11T03:56:21.005Z,97134.46
2023-03-11T03:58:54.144Z,97138.46
2023-03-11T04:01:26.875Z,97139.29
2023-03-11T04:03:59.060Z,97140.52
2023-03-11T04:06:31.133Z,97147.20
2023-03-11T04:09:06.635Z,97150.06
2023-03-11T04:11:40.262Z,97154.45
2023-03-11T04:14:12.621Z,97156.15
2023-03-11T04:16:49.436Z,97161.75
2023-03-11T04:19:22.367Z,97161.91
2023-03-11T04:21:54.419Z,97159.98
2023-03-11T04:24:26.755Z,97158.88
2023-03-11T04:26:59.146Z,97172.92
2023-03-11T04:29:31.553Z,97177.15
2023-03-11T04:32:03.512Z,97184.09
2023-03-11T04:34:33.882Z,97184.27
2023-03-11T04:37:05.932Z,97189.99
2023-03-11T04:39:38.914Z,97196.93
2023-03-11T04:42:14.123Z,97205.94
2023-03-11T04:44:47.278Z,97220.84
2023-03-11T04:47:17.879Z,97225.23
2023-03-11T04:49:50.092Z,97234.05
2023-03-11T04:52:22.049Z,97238.61
2023-03-11T04:54:54.069Z,97245.36
2023-03-11T04:57:24.668Z,97256.83
2023-03-11T04:59:56.704Z,97270.62
2023-03-11T05:02:29.124Z,97283.92
2023-03-11T05:05:03.851Z,97288.91
2023-03-11T05:07:38.048Z,97290.39
2023-03-11T05:10:12.520Z,97285.33
2023-03-11T05:12:44.738Z,97280.73
2023-03-11T05:15:16.778Z,97276.05
2023-03-11T05:17:48.910Z,97277.64
2023-03-11T05:20:21.469Z,97278.52
2023-03-11T05:22:53.350Z,97280.36
2023-03-11T05:25:26.012Z,97285.64
2023-03-11T05:27:57.972Z,97289.45
2023-03-11T05:30:28.604Z,97292.88
2023-03-11T05:33:01.647Z,97295.29
2023-03-11T05:35:33.686Z,97294.42
2023-03-11T05:38:06.111Z,97297.54
2023-03-11T05:40:38.393Z,97297.14
2023-03-11T05:43:10.464Z,97297.00
2023-03-11T05:45:44.357Z,97298.11
2023-03-11T05:48:16.221Z,97296.02
2023-03-11T05:50:48.140Z,97297.48
2023-03-11T05:53:20.515Z,97301.87
2023-03-11T05:56:00.111Z,97302.70
2023-03-11T05:58:33.602Z,97308.66
2023-03-11T06:01:11.181Z,97307.70
2023-03-11T06:03:55.063Z,97313.14
2023-03-11T06:06:31.205Z,97316.31
2023-03-11T06:09:05.238Z,97320.39
2023-03-11T06:11:52.166Z,97321.60
2023-03-11T06:14:34.305Z,97326.20
2023-03-11T06:17:06.330Z,97333.36
2023-03-11T06:19:38.297Z,97340.42
2023-03-11T06:22:10.790Z,97351.31
2023-03-11T06:24:43.600Z,97353.67
2023-03-11T06:27:17.171Z,97360.41
2023-03-11T06:29:55.450Z,97364.79
2023-03-11T06:32:29.707Z,97367.73
2023-03-11T06:35:02.128Z,97374.59
2023-03-11T06:37:36.835Z,97380.92
2023-03-11T06:40:12.434Z,97376.97
2023-03-11T06:42:46.702Z,97385.52
2023-03-11T06:45:20.695Z,97379.66
2023-03-11T06:47:53.899Z,97389.66
2023-03-11T06:50:24.871Z,97400.78
2023-03-11T06:53:00.328Z,97398.39
2023-03-11T06:55:44.007Z,97406.48
2023-03-11T06:58:18.268Z,97413.37
2023-03-11T07:00:52.596Z,97426.23
2023-03-11T07:03:24.901Z,97430.59
2023-03-11T07:06:00.855Z,97436.33
2023-03-11T07:08:39.192Z,97449.35
2023-03-11T07:11:20.188Z,97457.85
2023-03-11T07:14:08.705Z,97461.73
2023-03-11T07:17:23.589Z,97471.98
2023-03-11T07:20:12.601Z,97468.05
2023-03-11T07:22:44.544Z,97471.77
2023-03-11T07:25:21.052Z,97478.48
2023-03-11T07:28:00.307Z,97482.65
2023-03-11T07:30:55.608Z,97482.33
2023-03-11T07:33:35.507Z,97491.17
2023-03-11T07:36:16.624Z,97494.92
2023-03-11T07:38:49.266Z,97503.91
2023-03-11T07:41:21.824Z,97503.58
2023-03-11T07:43:57.100Z,97509.23
2023-03-11T07:46:30.794Z,97511.17
2023-03-11T07:49:03.828Z,97516.80
2023-03-11T07:51:38.097Z,97520.77
2023-03-11T07:54:11.391Z,97522.63
2023-03-11T07:56:44.499Z,97528.64
2023-03-11T07:59:16.467Z,97528.79
2023-03-11T08:01:48.624Z,97528.14
2023-03-11T08:04:20.426Z,97535.95
2023-03-11T08:06:52.315Z,97538.91
2023-03-11T08:09:24.395Z,97536.80
2023-03-11T08:11:54.840Z,97546.71
2023-03-11T08:14:26.891Z,97548.60
2023-03-11T08:16:58.736Z,97542.67
2023-03-11T08:19:30.574Z,97553.18
2023-03-11T08:22:04.320Z,97554.67
2023-03-11T08:24:36.785Z,97559.58
2023-03-11T08:27:07.206Z,97565.50
2023-03-11T08:29:39.245Z,97568.15
2023-03-11T08:32:11.591Z,97570.57
2023-03-11T08:34:43.390Z,97575.82
2023-03-11T08:37:15.254Z,97578.71
2023-03-11T08:39:47.594Z,97586.91
2023-03-11T08:42:18.573Z,97586.92
2023-03-11T08:44:51.001Z,97589.29
2023-03-11T08:47:23.240Z,97598.30
2023-03-11T08:49:53.876Z,97602.98
2023-03-11T08:52:25.787Z,97609.88
2023-03-11T08:54:57.730Z,97615.55
2023-03-11T08:57:29.683Z,97619.34
2023-03-11T09:00:01.787Z,97625.84
2023-03-11T09:02:34.223Z,97631.91
2023-03-11T09:05:07.760Z,97636.08
2023-03-11T09:07:40.254Z,97653.74
2023-03-11T09:10:12.921Z,97650.13
2023-03-11T09:12:44.992Z,97666.33
2023-03-11T09:15:17.057Z,97677.66
2023-03-11T09:17:47.575Z,97680.17
2023-03-11T09:20:19.852Z,97686.13
2023-03-11T09:22:52.048Z,97691.58
2023-03-11T09:25:24.352Z,97705.66
2023-03-11T09:27:56.432Z,97705.96
2023-03-11T09:30:28.800Z,97716.63
2023-03-11T09:33:00.664Z,97719.81
2023-03-11T09:35:32.884Z,97725.84
2023-03-11T09:38:03.161Z,97727.78
2023-03-11T09:40:58.080Z,97740.80
2023-03-11T09:43:48.281Z,97742.47
2023-03-11T09:46:49.534Z,97755.82
2023-03-11T09:49:31.115Z,97764.23
2023-03-11T09:52:10.619Z,97776.77
2023-03-11T09:54:47.127Z,97787.31
2023-03-11T09:57:23.986Z,97801.35
2023-03-11T09:59:57.048Z,97808.44
2023-03-11T10:02:29.582Z,97814.76
2023-03-11T10:05:09.001Z,97827.41
2023-03-11T10:07:43.277Z,97838.17
2023-03-11T10:10:16.124Z,97847.54
2023-03-11T10:12:57.157Z,97853.26
2023-03-11T10:15:49.121Z,97862.27
2023-03-11T10:18:35.164Z,97876.44
2023-03-11T10:21:15.519Z,97880.26
2023-03-11T10:24:03.324Z,97883.96
2023-03-11T10:26:38.525Z,97891.73
2023-03-11T10:29:21.226Z,97897.13
2023-03-11T10:31:59.887Z,97913.50
2023-03-11T10:34:38.306Z,97917.59
2023-03-11T10:37:15.702Z,97928.59
2023-03-11T10:39:49.295Z,97939.13
2023-03-11T10:42:25.274Z,97955.32
2023-03-11T10:44:57.170Z,97961.00
2023-03-11T10:47:30.476Z,97965.02
2023-03-11T10:50:02.373Z,97972.13
2023-03-11T10:52:42.569Z,97975.13
2023-03-11T10:55:20.473Z,97985.14
2023-03-11T10:57:53.718Z,97988.67
2023-03-11T11:00:32.979Z,97994.27
2023-03-11T11:03:06.760Z,98001.97
2023-03-11T11:05:38.893Z,98011.65
2023-03-11T11:08:16.279Z,98015.25
2023-03-11T11:10:56.186Z,98028.91
2023-03-11T11:13:30.272Z,98034.02
2023-03-11T11:16:05.743Z,98037.76
2023-03-11T11:18:44.093Z,98054.76
2023-03-11T11:21:19.085Z,98059.30
2023-03-11T11:24:03.787Z,98068.20
2023-03-11T11:26:35.934Z,98072.66
2023-03-11T11:29:16.533Z,98083.49
2023-03-11T11:31:49.177Z,98087.88
2023-03-11T11:34:31.339Z,98095.48
2023-03-11T11:37:03.543Z,98099.10
2023-03-11T11:39:51.359Z,98105.75
2023-03-11T11:42:25.320Z,98104.69
2023-03-11T11:45:03.511Z,98111.44
2023-03-11T11:47:43.066Z,98119.73
2023-03-11T11:50:21.460Z,98122.58
2023-03-11T11:52:58.474Z,98131.11
2023-03-11T11:55:31.323Z,98132.10
2023-03-11T11:58:03.311Z,98149.42
2023-03-11T12:00:45.162Z,98150.23
2023-03-11T12:03:39.986Z,98158.14
2023-03-11T12:06:21.780Z,98170.14
2023-03-11T12:09:05.110Z,98172.59
2023-03-11T12:11:43.033Z,98171.98
2023-03-11T12:14:22.749Z,98170.48
2023-03-11T12:16:59.035Z,98183.56
2023-03-11T12:19:40.708Z,98178.73
2023-03-11T12:22:47.611Z,98185.30
2023-03-11T12:25:36.557Z,98197.48
2023-03-11T12:28:19.616Z,98193.80
2023-03-11T12:30:55.397Z,98202.59
2023-03-11T12:33:36.482Z,98204.14
2023-03-11T12:36:21.926Z,98211.64
2023-03-11T12:38:54.834Z,98219.45
2023-03-11T12:41:47.020Z,98229.37
2023-03-11T12:44:28.944Z,98236.59
2023-03-11T12:47:21.297Z,98231.43
2023-03-11T12:49:55.312Z,98241.41
2023-03-11T12:52:52.055Z,98249.47
2023-03-11T12:55:34.276Z,98256.98
2023-03-11T12:58:45.305Z,98259.12
2023-03-11T13:01:45.315Z,98267.20
2023-03-11T13:04:31.435Z,98267.96
2023-03-11T13:07:31.443Z,98266.58
2023-03-11T13:10:13.511Z,98278.70
2023-03-11T13:12:47.588Z,98287.20
2023-03-11T13:15:36.768Z,98284.96
2023-03-11T13:18:20.398Z,98310.50
2023-03-11T13:20:57.148Z,98311.52
2023-03-11T13:23:33.497Z,98317.56
2023-03-11T13:26:25.677Z,98324.55
2023-03-11T13:29:36.439Z,98325.14
2023-03-11T13:32:37.358Z,98325.34
2023-03-11T13:35:23.774Z,98333.30
2023-03-11T13:38:19.016Z,98340.23
2023-03-11T13:40:52.755Z,98347.66
2023-03-11T13:43:26.163Z,98352.59
2023-03-11T13:46:02.603Z,98357.15
2023-03-11T13:48:40.628Z,98368.02
2023-03-11T13:51:25.683Z,98373.83
2023-03-11T13:54:05.472Z,98375.91
2023-03-11T13:56:52.345Z,98378.27
2023-03-11T13:59:32.140Z,98381.69
2023-03-11T14:02:45.808Z,98382.39
2023-03-11T14:05:41.290Z,98385.30
2023-03-11T14:08:36.736Z,98391.16
2023-03-11T14:11:28.781Z,98393.77
2023-03-11T14:14:09.815Z,98400.92
2023-03-11T14:16:55.350Z,98409.47
2023-03-11T14:20:08.486Z,98426.36
2023-03-11T14:26:09.782Z,98453.12
2023-03-11T14:28:49.994Z,98456.49
2023-03-11T14:31:54.524Z,98457.80
2023-03-11T14:35:11.526Z,98459.04
2023-03-11T14:38:10.003Z,98472.40
2023-03-11T14:41:37.592Z,98469.98
2023-03-11T14:44:59.812Z,98484.01
2023-03-11T14:51:34.055Z,98504.69
2023-03-11T14:58:15.333Z,98530.42
2023-03-11T15:00:58.296Z,98533.20
2023-03-11T15:03:39.929Z,98535.98
2023-03-11T15:06:22.983Z,98542.16
2023-03-11T15:09:09.259Z,98543.86
2023-03-11T15:15:02.824Z,98557.58
2023-03-11T15:18:03.163Z,98557.63
2023-03-11T15:20:45.715Z,98561.36
2023-03-11T15:23:24.106Z,98562.61
2023-03-11T15:25:57.052Z,98569.70
2023-03-11T15:28:29.582Z,98578.37
2023-03-11T15:31:31.413Z,98588.72
2023-03-11T15:34:22.942Z,98595.80
2023-03-11T15:37:05.028Z,98605.83
2023-03-11T15:39:48.583Z,98613.08
2023-03-11T15:42:26.733Z,98620.55
2023-03-11T15:45:05.875Z,98628.02
2023-03-11T15:47:37.775Z,98632.88
2023-03-11T15:50:35.217Z,98642.89
2023-03-11T15:53:15.390Z,98655.65
2023-03-11T15:55:48.107Z,98663.60
2023-03-11T15:58:21.500Z,98668.59
2023-03-11T16:00:56.166Z,98673.06
2023-03-11T16:03:31.549Z,98676.05
2023-03-11T16:06:03.620Z,98679.01
2023-03-11T16:08:35.808Z,98683.60
2023-03-11T16:11:07.238Z,98689.59
2023-03-11T16:13:39.124Z,98695.11
2023-03-11T16:16:16.713Z,98700.95
2023-03-11T16:18:48.741Z,98705.73
2023-03-11T16:21:22.747Z,98711.08
2023-03-11T16:23:54.753Z,98714.21
2023-03-11T16:26:26.524Z,98724.54
2023-03-11T16:29:06.204Z,98723.29
2023-03-11T16:31:46.198Z,98725.90
2023-03-11T16:34:16.697Z,98727.98
2023-03-11T16:36:51.299Z,98732.67
2023-03-11T16:39:23.289Z,98740.45
2023-03-11T16:41:55.462Z,98741.52
2023-03-11T16:44:25.896Z,98751.17
2023-03-11T16:46:57.776Z,98755.07
2023-03-11T16:49:30.449Z,98763.11
2023-03-11T16:52:02.548Z,98768.48
2023-03-11T16:54:35.206Z,98775.70
2023-03-11T16:57:07.405Z,98778.14
2023-03-11T16:59:38.018Z,98785.63
2023-03-11T17:02:12.813Z,98790.13
2023-03-11T17:04:45.784Z,98796.68
2023-03-11T17:07:16.315Z,98801.54
2023-03-11T17:09:48.363Z,98807.16
2023-03-11T17:12:20.551Z,98808.95
2023-03-11T17:14:51.123Z,98812.74
2023-03-11T17:17:23.724Z,98818.48
2023-03-11T17:19:55.789Z,98826.47
2023-03-11T17:22:27.879Z,98829.56
2023-03-11T17:24:58.790Z,98833.04
2023-03-11T17:27:32.629Z,98833.56
2023-03-11T17:30:07.392Z,98837.52
2023-03-11T17:32:39.669Z,98842.54
2023-03-11T17:35:23.448Z,98845.15
2023-03-11T17:37:58.334Z,98854.77
2023-03-11T17:40:42.740Z,98855.40
2023-03-11T17:43:26.107Z,98856.84
2023-03-11T17:46:00.033Z,98864.65
2023-03-11T17:48:38.333Z,98867.02
2023-03-11T17:51:20.349Z,98870.98
2023-03-11T17:54:06.036Z,98875.12
2023-03-11T17:56:40.725Z,98881.21
2023-03-11T17:59:13.180Z,98884.06
2023-03-11T18:01:48.041Z,98887.67
2023-03-11T18:04:20.352Z,98890.19
2023-03-11T18:06:56.458Z,98901.55
2023-03-11T18:09:29.414Z,98904.42
2023-03-11T18:12:02.693Z,98903.36
2023-03-11T18:14:42.991Z,98908.25
2023-03-11T18:17:23.502Z,98913.88
2023-03-11T18:20:20.130Z,98920.13
2023-03-11T18:23:04.922Z,98925.00
2023-03-11T18:25:48.664Z,98929.61
2023-03-11T18:28:38.287Z,98927.48
2023-03-11T18:31:23.324Z,98931.67
2023-03-11T18:34:13.634Z,98930.90
2023-03-11T18:36:49.319Z,98925.58
2023-03-11T18:39:32.992Z,98932.01
2023-03-11T18:42:10.805Z,98938.27
2023-03-11T18:44:43.254Z,98943.61
2023-03-11T18:47:15.418Z,98946.93
2023-03-11T18:49:50.662Z,98949.04
2023-03-11T18:52:26.275Z,98954.04
2023-03-11T18:54:58.513Z,98955.73
2023-03-11T19:00:22.341Z,98964.77
2023-03-11T19:02:55.287Z,98966.80
2023-03-11T19:05:27.721Z,98972.83
2023-03-11T19:07:59.815Z,98975.41
2023-03-11T19:10:31.958Z,98977.75
2023-03-11T19:13:14.148Z,98981.10
2023-03-11T19:15:58.453Z,98982.05
2023-03-11T19:19:00.024Z,98978.98
2023-03-11T19:21:51.300Z,98985.79
2023-03-11T19:24:34.100Z,98990.38
2023-03-11T19:27:11.798Z,98994.21
2023-03-11T19:29:48.103Z,99000.92
2023-03-11T19:32:31.574Z,99005.55
2023-03-11T19:35:16.374Z,99007.77
2023-03-11T19:38:03.467Z,99006.52
2023-03-11T19:40:41.580Z,99011.64
2023-03-11T19:43:29.116Z,99013.64
2023-03-11T19:46:18.981Z,99017.08
2023-03-11T19:51:50.759Z,99027.89
2023-03-11T19:54:30.665Z,99030.40
2023-03-11T19:57:04.425Z,99030.70
2023-03-11T19:59:42.691Z,99034.11
2023-03-11T20:02:25.289Z,99038.61
2023-03-11T20:04:57.652Z,99043.94
2023-03-11T20:07:35.432Z,99045.98
2023-03-11T20:10:14.224Z,99048.57
2023-03-11T20:13:01.470Z,99057.75
2023-03-11T20:15:40.139Z,99062.89
2023-03-11T20:18:12.182Z,99066.94
2023-03-11T20:20:44.829Z,99066.09
2023-03-11T20:23:25.545Z,99067.81
2023-03-11T20:25:58.418Z,99065.67
2023-03-11T20:28:39.809Z,99073.86
2023-03-11T20:31:21.983Z,99072.10
2023-03-11T20:33:57.551Z,99074.61
2023-03-11T20:36:34.672Z,99075.58
2023-03-11T20:39:10.132Z,99077.84
2023-03-11T20:41:43.211Z,99082.17
2023-03-11T20:44:16.509Z,99080.89
2023-03-11T20:46:49.481Z,99083.06
2023-03-11T20:49:21.989Z,99085.57
2023-03-11T20:51:54.122Z,99086.55
2023-03-11T20:54:26.051Z,99091.01
2023-03-11T20:56:58.099Z,99089.91
2023-03-11T20:59:28.675Z,99096.48
2023-03-11T21:02:00.739Z,99093.38
2023-03-11T21:04:33.015Z,99098.88
2023-03-11T21:07:05.054Z,99096.58
2023-03-11T21:09:35.800Z,99099.09
2023-03-11T21:12:08.820Z,99099.73
2023-03-11T21:14:41.569Z,99100.17
2023-03-11T21:17:13.647Z,99102.05
2023-03-11T21:19:46.217Z,99107.69
2023-03-11T21:22:18.410Z,99107.42
2023-03-11T21:24:51.848Z,99107.17
2023-03-11T21:27:27.187Z,99105.89
2023-03-11T21:30:00.279Z,99109.08
2023-03-11T21:32:33.928Z,99102.36
2023-03-11T21:35:07.295Z,99102.48
2023-03-11T21:37:39.333Z,99103.42
2023-03-11T21:40:11.333Z,99110.83
2023-03-11T21:42:43.487Z,99110.91
2023-03-11T21:45:14.300Z,99113.43
2023-03-11T21:47:46.533Z,99110.20
2023-03-11T21:50:19.009Z,99113.36
2023-03-11T21:52:51.130Z,99110.66
2023-03-11T21:55:23.323Z,99108.94
2023-03-11T21:57:55.591Z,99111.61
2023-03-11T22:00:26.127Z,99110.83
2023-03-11T22:02:59.163Z,99111.76
2023-03-11T22:05:31.145Z,99112.02
2023-03-11T22:08:03.085Z,99110.46
2023-03-11T22:10:35.204Z,99111.39
2023-03-11T22:13:07.211Z,99114.21
2023-03-11T22:15:39.322Z,99114.08
2023-03-11T22:18:11.774Z,99116.57
2023-03-11T22:20:44.466Z,99117.09
2023-03-11T22:23:16.369Z,99121.14
2023-03-11T22:25:48.183Z,99119.09
2023-03-11T22:28:20.241Z,99123.83
2023-03-11T22:30:52.294Z,99128.38
2023-03-11T22:33:24.435Z,99125.64
2023-03-11T22:35:56.185Z,99126.61
2023-03-11T22:38:28.388Z,99128.27
2023-03-11T22:41:00.408Z,99125.54
2023-03-11T22:43:32.390Z,99123.58
2023-03-11T22:46:05.408Z,99125.52
2023-03-11T22:48:37.645Z,99128.15
2023-03-11T22:51:10.914Z,99126.09
2023-03-11T22:53:43.217Z,99124.58
2023-03-11T22:56:15.427Z,99127.04
2023-03-11T22:58:47.564Z,99132.16
2023-03-11T23:01:20.125Z,99131.83
2023-03-11T23:03:52.125Z,99134.81
2023-03-11T23:06:24.168Z,99136.91
2023-03-11T23:08:54.974Z,99134.65
2023-03-11T23:11:27.072Z,99140.25
2023-03-11T23:13:59.815Z,99144.96
2023-03-11T23:16:32.248Z,99144.64
2023-03-11T23:19:04.250Z,99145.90
2023-03-11T23:21:36.610Z,99145.95
2023-03-11T23:24:11.032Z,99144.94
2023-03-11T23:26:43.065Z,99144.95
2023-03-11T23:29:15.478Z,99146.30
2023-03-11T23:31:47.468Z,99150.35
2023-03-11T23:34:19.408Z,99151.52
2023-03-11T23:36:51.431Z,99154.77
2023-03-11T23:39:21.957Z,99162.66
2023-03-11T23:41:53.914Z,99167.26
2023-03-11T23:44:25.905Z,99173.23
2023-03-11T23:46:57.894Z,99177.80
2023-03-11T23:49:29.836Z,99182.88
2023-03-11T23:52:01.879Z,99182.00
2023-03-11T23:54:33.899Z,99188.70
2023-03-11T23:57:05.990Z,99186.52
2023-03-11T23:59:38.196Z,99187.11
